sensor_id;sensor_type;location;lat;lon;timestamp;P1;durP1;ratioP1;P2;durP2;ratioP2
73682;SDS011;72538;48.146;11.740;2024-03-23T00:55:34;3.40;;;2.97;;
73682;SDS011;72538;48.146;11.740;2024-03-23T00:58:00;3.53;;;3.20;;
73682;SDS011;72538;48.146;11.740;2024-03-23T01:00:26;4.63;;;3.37;;
73682;SDS011;72538;48.146;11.740;2024-03-23T01:02:52;3.60;;;3.30;;
73682;SDS011;72538;48.146;11.740;2024-03-23T01:05:18;3.27;;;2.97;;
73682;SDS011;72538;48.146;11.740;2024-03-23T01:07:44;3.17;;;2.87;;
73682;SDS011;72538;48.146;11.740;2024-03-23T01:10:11;3.33;;;3.03;;
73682;SDS011;72538;48.146;11.740;2024-03-23T01:12:37;3.20;;;2.90;;
73682;SDS011;72538;48.146;11.740;2024-03-23T01:15:03;4.43;;;3.37;;
73682;SDS011;72538;48.146;11.740;2024-03-23T01:17:29;3.20;;;3.00;;
73682;SDS011;72538;48.146;11.740;2024-03-23T01:19:55;3.77;;;3.30;;
73682;SDS011;72538;48.146;11.740;2024-03-23T01:22:22;3.20;;;2.90;;
73682;SDS011;72538;48.146;11.740;2024-03-23T01:24:48;3.60;;;3.00;;
73682;SDS011;72538;48.146;11.740;2024-03-23T01:27:14;3.00;;;2.80;;
73682;SDS011;72538;48.146;11.740;2024-03-23T01:29:40;3.43;;;3.13;;
73682;SDS011;72538;48.146;11.740;2024-03-23T01:32:06;4.10;;;2.83;;
73682;SDS011;72538;48.146;11.740;2024-03-23T01:34:33;4.00;;;2.90;;
73682;SDS011;72538;48.146;11.740;2024-03-23T01:36:59;3.03;;;2.77;;
73682;SDS011;72538;48.146;11.740;2024-03-23T01:39:25;3.83;;;3.20;;
73682;SDS011;72538;48.146;11.740;2024-03-23T01:41:51;4.83;;;3.00;;
73682;SDS011;72538;48.146;11.740;2024-03-23T01:44:17;3.10;;;2.80;;
73682;SDS011;72538;48.146;11.740;2024-03-23T01:46:43;4.67;;;3.17;;
73682;SDS011;72538;48.146;11.740;2024-03-23T01:49:10;3.30;;;3.00;;
73682;SDS011;72538;48.146;11.740;2024-03-23T01:51:36;3.50;;;2.77;;
73682;SDS011;72538;48.146;11.740;2024-03-23T01:54:03;3.67;;;2.50;;
73682;SDS011;72538;48.146;11.740;2024-03-23T01:56:31;5.90;;;3.20;;
73682;SDS011;72538;48.146;11.740;2024-03-23T01:58:59;2.43;;;2.23;;
73682;SDS011;72538;48.146;11.740;2024-03-23T02:01:25;3.73;;;2.83;;
73682;SDS011;72538;48.146;11.740;2024-03-23T02:03:51;2.77;;;2.57;;
73682;SDS011;72538;48.146;11.740;2024-03-23T02:06:17;2.50;;;2.30;;
73682;SDS011;72538;48.146;11.740;2024-03-23T02:08:43;3.57;;;2.60;;
73682;SDS011;72538;48.146;11.740;2024-03-23T02:11:10;2.77;;;2.57;;
73682;SDS011;72538;48.146;11.740;2024-03-23T02:13:36;3.13;;;2.30;;
73682;SDS011;72538;48.146;11.740;2024-03-23T02:16:02;3.60;;;2.80;;
73682;SDS011;72538;48.146;11.740;2024-03-23T02:18:29;4.03;;;2.60;;
73682;SDS011;72538;48.146;11.740;2024-03-23T02:20:55;3.63;;;3.30;;
73682;SDS011;72538;48.146;11.740;2024-03-23T02:23:25;4.40;;;2.57;;
73682;SDS011;72538;48.146;11.740;2024-03-23T02:25:51;3.00;;;2.13;;
73682;SDS011;72538;48.146;11.740;2024-03-23T02:28:17;2.90;;;2.70;;
73682;SDS011;72538;48.146;11.740;2024-03-23T02:30:43;3.70;;;2.70;;
73682;SDS011;72538;48.146;11.740;2024-03-23T02:33:09;3.63;;;3.17;;
73682;SDS011;72538;48.146;11.740;2024-03-23T02:35:35;3.23;;;2.90;;
73682;SDS011;72538;48.146;11.740;2024-03-23T02:38:01;4.10;;;3.00;;
73682;SDS011;72538;48.146;11.740;2024-03-23T02:40:27;3.90;;;2.90;;
73682;SDS011;72538;48.146;11.740;2024-03-23T02:42:54;3.50;;;2.90;;
73682;SDS011;72538;48.146;11.740;2024-03-23T02:45:20;3.13;;;2.87;;
73682;SDS011;72538;48.146;11.740;2024-03-23T02:47:46;2.37;;;2.20;;
73682;SDS011;72538;48.146;11.740;2024-03-23T02:50:12;3.00;;;2.70;;
73682;SDS011;72538;48.146;11.740;2024-03-23T02:52:40;3.67;;;2.80;;
73682;SDS011;72538;48.146;11.740;2024-03-23T02:55:06;2.93;;;2.40;;
73682;SDS011;72538;48.146;11.740;2024-03-23T02:57:33;2.60;;;2.40;;
73682;SDS011;72538;48.146;11.740;2024-03-23T02:59:59;4.43;;;2.83;;
73682;SDS011;72538;48.146;11.740;2024-03-23T03:02:25;4.50;;;2.17;;
73682;SDS011;72538;48.146;11.740;2024-03-23T03:04:51;3.10;;;2.80;;
73682;SDS011;72538;48.146;11.740;2024-03-23T03:07:17;3.57;;;2.20;;
73682;SDS011;72538;48.146;11.740;2024-03-23T03:09:44;5.10;;;2.60;;
73682;SDS011;72538;48.146;11.740;2024-03-23T03:12:10;2.43;;;2.17;;
73682;SDS011;72538;48.146;11.740;2024-03-23T03:14:36;3.40;;;2.70;;
73682;SDS011;72538;48.146;11.740;2024-03-23T03:17:03;3.00;;;2.57;;
73682;SDS011;72538;48.146;11.740;2024-03-23T03:19:29;2.50;;;2.20;;
73682;SDS011;72538;48.146;11.740;2024-03-23T03:21:56;2.50;;;2.03;;
73682;SDS011;72538;48.146;11.740;2024-03-23T03:24:22;4.33;;;2.50;;
73682;SDS011;72538;48.146;11.740;2024-03-23T03:29:35;2.93;;;2.30;;
73682;SDS011;72538;48.146;11.740;2024-03-23T03:32:02;2.67;;;2.30;;
73682;SDS011;72538;48.146;11.740;2024-03-23T03:34:28;2.67;;;2.20;;
73682;SDS011;72538;48.146;11.740;2024-03-23T03:36:55;2.50;;;2.27;;
73682;SDS011;72538;48.146;11.740;2024-03-23T03:39:21;2.57;;;2.37;;
73682;SDS011;72538;48.146;11.740;2024-03-23T03:41:48;2.50;;;2.07;;
73682;SDS011;72538;48.146;11.740;2024-03-23T03:44:15;2.43;;;2.23;;
73682;SDS011;72538;48.146;11.740;2024-03-23T03:46:41;3.03;;;2.30;;
73682;SDS011;72538;48.146;11.740;2024-03-23T03:49:07;3.37;;;2.20;;
73682;SDS011;72538;48.146;11.740;2024-03-23T03:51:33;3.47;;;2.10;;
73682;SDS011;72538;48.146;11.740;2024-03-23T03:53:59;3.03;;;2.13;;
73682;SDS011;72538;48.146;11.740;2024-03-23T03:56:25;3.93;;;2.97;;
73682;SDS011;72538;48.146;11.740;2024-03-23T03:58:51;2.37;;;2.17;;
73682;SDS011;72538;48.146;11.740;2024-03-23T04:01:17;2.40;;;2.20;;
73682;SDS011;72538;48.146;11.740;2024-03-23T04:03:44;3.17;;;2.10;;
73682;SDS011;72538;48.146;11.740;2024-03-23T04:06:10;2.93;;;2.50;;
73682;SDS011;72538;48.146;11.740;2024-03-23T04:08:36;2.70;;;2.17;;
73682;SDS011;72538;48.146;11.740;2024-03-23T04:11:02;2.80;;;2.20;;
73682;SDS011;72538;48.146;11.740;2024-03-23T04:13:28;2.50;;;2.30;;
73682;SDS011;72538;48.146;11.740;2024-03-23T04:15:55;3.30;;;2.20;;
73682;SDS011;72538;48.146;11.740;2024-03-23T04:18:42;5.37;;;2.50;;
73682;SDS011;72538;48.146;11.740;2024-03-23T04:21:10;2.33;;;2.13;;
73682;SDS011;72538;48.146;11.740;2024-03-23T04:23:36;4.97;;;2.20;;
73682;SDS011;72538;48.146;11.740;2024-03-23T04:26:03;3.37;;;2.13;;
73682;SDS011;72538;48.146;11.740;2024-03-23T04:28:29;2.63;;;2.17;;
73682;SDS011;72538;48.146;11.740;2024-03-23T04:30:55;2.43;;;2.23;;
73682;SDS011;72538;48.146;11.740;2024-03-23T04:33:21;2.97;;;2.07;;
73682;SDS011;72538;48.146;11.740;2024-03-23T04:35:49;2.87;;;2.10;;
73682;SDS011;72538;48.146;11.740;2024-03-23T04:38:15;2.53;;;1.80;;
73682;SDS011;72538;48.146;11.740;2024-03-23T04:40:42;2.30;;;2.10;;
73682;SDS011;72538;48.146;11.740;2024-03-23T04:43:08;4.00;;;2.10;;
73682;SDS011;72538;48.146;11.740;2024-03-23T04:45:34;2.27;;;1.90;;
73682;SDS011;72538;48.146;11.740;2024-03-23T04:48:00;2.20;;;2.00;;
73682;SDS011;72538;48.146;11.740;2024-03-23T04:50:26;2.83;;;2.30;;
73682;SDS011;72538;48.146;11.740;2024-03-23T04:52:53;2.57;;;2.33;;
73682;SDS011;72538;48.146;11.740;2024-03-23T04:55:19;2.10;;;1.90;;
73682;SDS011;72538;48.146;11.740;2024-03-23T04:57:45;2.00;;;1.90;;
73682;SDS011;72538;48.146;11.740;2024-03-23T05:00:11;2.33;;;1.90;;
73682;SDS011;72538;48.146;11.740;2024-03-23T05:02:43;2.90;;;2.60;;
73682;SDS011;72538;48.146;11.740;2024-03-23T05:05:10;3.60;;;2.30;;
73682;SDS011;72538;48.146;11.740;2024-03-23T05:07:36;2.37;;;1.80;;
73682;SDS011;72538;48.146;11.740;2024-03-23T05:10:02;3.33;;;1.83;;
73682;SDS011;72538;48.146;11.740;2024-03-23T05:12:29;2.03;;;1.77;;
73682;SDS011;72538;48.146;11.740;2024-03-23T05:14:55;3.47;;;1.90;;
73682;SDS011;72538;48.146;11.740;2024-03-23T05:17:21;2.10;;;1.90;;
73682;SDS011;72538;48.146;11.740;2024-03-23T05:19:47;3.57;;;1.77;;
73682;SDS011;72538;48.146;11.740;2024-03-23T05:22:13;2.07;;;1.90;;
73682;SDS011;72538;48.146;11.740;2024-03-23T05:24:39;2.33;;;2.00;;
73682;SDS011;72538;48.146;11.740;2024-03-23T05:27:05;2.83;;;2.00;;
73682;SDS011;72538;48.146;11.740;2024-03-23T05:29:32;2.00;;;1.80;;
73682;SDS011;72538;48.146;11.740;2024-03-23T05:31:58;3.17;;;1.80;;
73682;SDS011;72538;48.146;11.740;2024-03-23T05:34:24;1.70;;;1.60;;
73682;SDS011;72538;48.146;11.740;2024-03-23T05:36:50;2.10;;;1.90;;
73682;SDS011;72538;48.146;11.740;2024-03-23T05:39:17;1.63;;;1.53;;
73682;SDS011;72538;48.146;11.740;2024-03-23T05:41:43;1.73;;;1.60;;
73682;SDS011;72538;48.146;11.740;2024-03-23T05:44:09;3.20;;;1.73;;
73682;SDS011;72538;48.146;11.740;2024-03-23T05:46:36;2.83;;;1.70;;
73682;SDS011;72538;48.146;11.740;2024-03-23T05:49:02;2.00;;;1.80;;
73682;SDS011;72538;48.146;11.740;2024-03-23T05:51:29;2.80;;;1.80;;
73682;SDS011;72538;48.146;11.740;2024-03-23T05:53:55;1.57;;;1.40;;
73682;SDS011;72538;48.146;11.740;2024-03-23T05:56:21;2.63;;;1.70;;
73682;SDS011;72538;48.146;11.740;2024-03-23T05:58:47;2.17;;;1.97;;
73682;SDS011;72538;48.146;11.740;2024-03-23T06:01:14;4.13;;;1.50;;
73682;SDS011;72538;48.146;11.740;2024-03-23T06:03:40;1.83;;;1.67;;
73682;SDS011;72538;48.146;11.740;2024-03-23T06:06:06;4.50;;;1.60;;
73682;SDS011;72538;48.146;11.740;2024-03-23T06:08:34;1.70;;;1.60;;
73682;SDS011;72538;48.146;11.740;2024-03-23T06:11:01;1.60;;;1.50;;
73682;SDS011;72538;48.146;11.740;2024-03-23T06:13:27;2.10;;;1.60;;
73682;SDS011;72538;48.146;11.740;2024-03-23T06:15:56;1.53;;;1.43;;
73682;SDS011;72538;48.146;11.740;2024-03-23T06:18:22;2.23;;;1.70;;
73682;SDS011;72538;48.146;11.740;2024-03-23T06:20:48;2.27;;;1.60;;
73682;SDS011;72538;48.146;11.740;2024-03-23T06:23:14;1.80;;;1.70;;
73682;SDS011;72538;48.146;11.740;2024-03-23T06:25:41;2.00;;;1.80;;
73682;SDS011;72538;48.146;11.740;2024-03-23T06:28:07;1.77;;;1.50;;
73682;SDS011;72538;48.146;11.740;2024-03-23T06:30:34;2.00;;;1.80;;
73682;SDS011;72538;48.146;11.740;2024-03-23T06:33:00;4.77;;;1.70;;
73682;SDS011;72538;48.146;11.740;2024-03-23T06:35:26;2.20;;;1.90;;
73682;SDS011;72538;48.146;11.740;2024-03-23T06:37:52;4.50;;;1.60;;
73682;SDS011;72538;48.146;11.740;2024-03-23T06:40:19;1.30;;;1.20;;
73682;SDS011;72538;48.146;11.740;2024-03-23T06:42:45;1.40;;;1.30;;
73682;SDS011;72538;48.146;11.740;2024-03-23T06:45:11;1.70;;;1.60;;
73682;SDS011;72538;48.146;11.740;2024-03-23T06:47:37;2.27;;;1.47;;
73682;SDS011;72538;48.146;11.740;2024-03-23T06:50:03;2.05;;;1.85;;
73682;SDS011;72538;48.146;11.740;2024-03-23T06:52:30;2.35;;;1.50;;
73682;SDS011;72538;48.146;11.740;2024-03-23T06:54:57;2.33;;;1.67;;
73682;SDS011;72538;48.146;11.740;2024-03-23T06:57:44;2.30;;;1.77;;
73682;SDS011;72538;48.146;11.740;2024-03-23T07:00:11;1.57;;;1.47;;
73682;SDS011;72538;48.146;11.740;2024-03-23T07:02:37;2.08;;;1.72;;
73682;SDS011;72538;48.146;11.740;2024-03-23T07:05:04;2.40;;;1.57;;
73682;SDS011;72538;48.146;11.740;2024-03-23T07:07:30;2.75;;;2.55;;
73682;SDS011;72538;48.146;11.740;2024-03-23T07:09:56;1.60;;;1.50;;
73682;SDS011;72538;48.146;11.740;2024-03-23T07:12:22;2.10;;;1.70;;
73682;SDS011;72538;48.146;11.740;2024-03-23T07:14:48;2.62;;;1.80;;
73682;SDS011;72538;48.146;11.740;2024-03-23T07:17:15;1.70;;;1.60;;
73682;SDS011;72538;48.146;11.740;2024-03-23T07:19:41;2.90;;;1.70;;
73682;SDS011;72538;48.146;11.740;2024-03-23T07:22:07;2.08;;;1.40;;
73682;SDS011;72538;48.146;11.740;2024-03-23T07:24:34;1.80;;;1.70;;
73682;SDS011;72538;48.146;11.740;2024-03-23T07:27:00;3.22;;;1.90;;
73682;SDS011;72538;48.146;11.740;2024-03-23T07:29:26;1.98;;;1.35;;
73682;SDS011;72538;48.146;11.740;2024-03-23T07:31:52;2.00;;;1.80;;
73682;SDS011;72538;48.146;11.740;2024-03-23T07:34:18;4.62;;;1.60;;
73682;SDS011;72538;48.146;11.740;2024-03-23T07:36:44;1.70;;;1.60;;
73682;SDS011;72538;48.146;11.740;2024-03-23T07:39:10;2.37;;;1.55;;
73682;SDS011;72538;48.146;11.740;2024-03-23T07:41:37;2.08;;;1.72;;
73682;SDS011;72538;48.146;11.740;2024-03-23T07:44:03;1.87;;;1.77;;
73682;SDS011;72538;48.146;11.740;2024-03-23T07:46:29;1.87;;;1.77;;
73682;SDS011;72538;48.146;11.740;2024-03-23T07:48:55;1.80;;;1.52;;
73682;SDS011;72538;48.146;11.740;2024-03-23T07:51:22;1.65;;;1.55;;
73682;SDS011;72538;48.146;11.740;2024-03-23T07:53:48;2.42;;;1.52;;
73682;SDS011;72538;48.146;11.740;2024-03-23T07:56:15;2.27;;;1.85;;
73682;SDS011;72538;48.146;11.740;2024-03-23T07:59:03;3.02;;;1.85;;
73682;SDS011;72538;48.146;11.740;2024-03-23T08:01:29;2.27;;;1.72;;
73682;SDS011;72538;48.146;11.740;2024-03-23T08:03:55;4.15;;;2.00;;
73682;SDS011;72538;48.146;11.740;2024-03-23T08:06:21;2.12;;;1.87;;
73682;SDS011;72538;48.146;11.740;2024-03-23T08:08:50;3.07;;;2.00;;
73682;SDS011;72538;48.146;11.740;2024-03-23T08:11:17;2.40;;;1.73;;
73682;SDS011;72538;48.146;11.740;2024-03-23T08:13:44;1.97;;;1.77;;
73682;SDS011;72538;48.146;11.740;2024-03-23T08:16:11;2.50;;;2.30;;
73682;SDS011;72538;48.146;11.740;2024-03-23T08:18:40;2.97;;;2.40;;
73682;SDS011;72538;48.146;11.740;2024-03-23T08:21:06;3.60;;;2.87;;
73682;SDS011;72538;48.146;11.740;2024-03-23T08:23:34;3.87;;;2.47;;
73682;SDS011;72538;48.146;11.740;2024-03-23T08:26:05;3.87;;;2.70;;
73682;SDS011;72538;48.146;11.740;2024-03-23T08:28:32;4.30;;;2.73;;
73682;SDS011;72538;48.146;11.740;2024-03-23T08:31:02;3.30;;;2.83;;
73682;SDS011;72538;48.146;11.740;2024-03-23T08:33:28;3.97;;;3.57;;
73682;SDS011;72538;48.146;11.740;2024-03-23T08:35:58;3.10;;;2.80;;
73682;SDS011;72538;48.146;11.740;2024-03-23T08:38:25;3.60;;;2.50;;
73682;SDS011;72538;48.146;11.740;2024-03-23T08:43:25;4.10;;;2.00;;
73682;SDS011;72538;48.146;11.740;2024-03-23T08:45:52;2.23;;;2.00;;
73682;SDS011;72538;48.146;11.740;2024-03-23T08:48:19;3.10;;;2.00;;
73682;SDS011;72538;48.146;11.740;2024-03-23T08:50:46;2.20;;;2.00;;
73682;SDS011;72538;48.146;11.740;2024-03-23T08:53:14;2.97;;;2.10;;
73682;SDS011;72538;48.146;11.740;2024-03-23T08:55:40;2.97;;;2.50;;
73682;SDS011;72538;48.146;11.740;2024-03-23T08:58:06;3.70;;;2.30;;
73682;SDS011;72538;48.146;11.740;2024-03-23T09:00:34;3.00;;;2.07;;
73682;SDS011;72538;48.146;11.740;2024-03-23T09:03:00;2.93;;;2.20;;
73682;SDS011;72538;48.146;11.740;2024-03-23T09:05:28;2.57;;;2.20;;
73682;SDS011;72538;48.146;11.740;2024-03-23T09:07:56;2.87;;;2.47;;
73682;SDS011;72538;48.146;11.740;2024-03-23T09:10:22;2.87;;;2.10;;
73682;SDS011;72538;48.146;11.740;2024-03-23T09:12:49;3.10;;;2.40;;
73682;SDS011;72538;48.146;11.740;2024-03-23T09:15:15;2.67;;;2.37;;
73682;SDS011;72538;48.146;11.740;2024-03-23T09:17:41;4.50;;;2.60;;
73682;SDS011;72538;48.146;11.740;2024-03-23T09:20:08;2.80;;;2.10;;
73682;SDS011;72538;48.146;11.740;2024-03-23T09:22:34;3.37;;;2.43;;
73682;SDS011;72538;48.146;11.740;2024-03-23T09:25:01;4.03;;;2.50;;
73682;SDS011;72538;48.146;11.740;2024-03-23T09:27:27;2.47;;;2.27;;
73682;SDS011;72538;48.146;11.740;2024-03-23T09:29:53;3.73;;;2.93;;
73682;SDS011;72538;48.146;11.740;2024-03-23T09:32:19;3.33;;;2.73;;
73682;SDS011;72538;48.146;11.740;2024-03-23T09:34:45;3.13;;;2.70;;
73682;SDS011;72538;48.146;11.740;2024-03-23T09:37:11;3.10;;;2.33;;
73682;SDS011;72538;48.146;11.740;2024-03-23T09:39:37;2.33;;;2.10;;
73682;SDS011;72538;48.146;11.740;2024-03-23T09:42:03;3.13;;;2.60;;
73682;SDS011;72538;48.146;11.740;2024-03-23T09:44:30;2.67;;;2.23;;
73682;SDS011;72538;48.146;11.740;2024-03-23T09:46:56;2.20;;;2.00;;
73682;SDS011;72538;48.146;11.740;2024-03-23T09:49:22;2.30;;;2.10;;
73682;SDS011;72538;48.146;11.740;2024-03-23T09:51:48;1.77;;;1.63;;
73682;SDS011;72538;48.146;11.740;2024-03-23T09:54:14;1.30;;;1.20;;
73682;SDS011;72538;48.146;11.740;2024-03-23T09:56:40;4.53;;;4.13;;
73682;SDS011;72538;48.146;11.740;2024-03-23T09:59:07;9.07;;;8.00;;
73682;SDS011;72538;48.146;11.740;2024-03-23T10:01:33;31.43;;;22.77;;
73682;SDS011;72538;48.146;11.740;2024-03-23T10:03:59;117.23;;;50.90;;
73682;SDS011;72538;48.146;11.740;2024-03-23T10:06:25;169.30;;;78.53;;
73682;SDS011;72538;48.146;11.740;2024-03-23T10:08:52;230.37;;;96.00;;
73682;SDS011;72538;48.146;11.740;2024-03-23T10:11:18;661.13;;;304.67;;
73682;SDS011;72538;48.146;11.740;2024-03-23T10:13:45;253.20;;;123.73;;
73682;SDS011;72538;48.146;11.740;2024-03-23T10:16:20;45.70;;;29.83;;
73682;SDS011;72538;48.146;11.740;2024-03-23T10:18:47;50.77;;;37.00;;
73682;SDS011;72538;48.146;11.740;2024-03-23T10:21:13;22.50;;;18.37;;
73682;SDS011;72538;48.146;11.740;2024-03-23T10:23:40;9.03;;;8.13;;
73682;SDS011;72538;48.146;11.740;2024-03-23T10:29:02;12.77;;;9.20;;
73682;SDS011;72538;48.146;11.740;2024-03-23T10:31:15;4.07;;;3.67;;
73682;SDS011;72538;48.146;11.740;2024-03-23T10:33:49;4.07;;;3.60;;
73682;SDS011;72538;48.146;11.740;2024-03-23T10:36:13;2.70;;;1.93;;
73682;SDS011;72538;48.146;11.740;2024-03-23T10:38:40;1.27;;;1.17;;
73682;SDS011;72538;48.146;11.740;2024-03-23T10:41:07;1.17;;;1.07;;
73682;SDS011;72538;48.146;11.740;2024-03-23T10:43:34;1.10;;;1.03;;
73682;SDS011;72538;48.146;11.740;2024-03-23T10:46:02;1.00;;;1.00;;
73682;SDS011;72538;48.146;11.740;2024-03-23T10:48:28;2.10;;;1.50;;
73682;SDS011;72538;48.146;11.740;2024-03-23T10:50:54;1.23;;;1.13;;
73682;SDS011;72538;48.146;11.740;2024-03-23T10:56:06;1.53;;;1.40;;
73682;SDS011;72538;48.146;11.740;2024-03-23T10:58:38;1.20;;;1.10;;
73682;SDS011;72538;48.146;11.740;2024-03-23T11:01:05;2.70;;;1.50;;
73682;SDS011;72538;48.146;11.740;2024-03-23T11:03:32;1.57;;;1.20;;
73682;SDS011;72538;48.146;11.740;2024-03-23T11:06:01;3.37;;;1.33;;
73682;SDS011;72538;48.146;11.740;2024-03-23T11:08:37;1.70;;;1.10;;
73682;SDS011;72538;48.146;11.740;2024-03-23T11:11:19;1.80;;;0.87;;
73682;SDS011;72538;48.146;11.740;2024-03-23T11:13:49;1.07;;;0.90;;
73682;SDS011;72538;48.146;11.740;2024-03-23T11:16:16;2.40;;;1.23;;
73682;SDS011;72538;48.146;11.740;2024-03-23T11:18:43;1.33;;;1.00;;
73682;SDS011;72538;48.146;11.740;2024-03-23T11:21:10;1.50;;;1.40;;
73682;SDS011;72538;48.146;11.740;2024-03-23T11:23:37;1.20;;;1.10;;
73682;SDS011;72538;48.146;11.740;2024-03-23T11:26:06;1.30;;;1.20;;
73682;SDS011;72538;48.146;11.740;2024-03-23T11:28:31;1.33;;;1.10;;
73682;SDS011;72538;48.146;11.740;2024-03-23T11:30:57;1.57;;;1.27;;
73682;SDS011;72538;48.146;11.740;2024-03-23T11:33:23;1.20;;;1.20;;
73682;SDS011;72538;48.146;11.740;2024-03-23T11:35:49;3.47;;;2.97;;
73682;SDS011;72538;48.146;11.740;2024-03-23T11:38:17;15.37;;;13.77;;
73682;SDS011;72538;48.146;11.740;2024-03-23T11:40:49;25.83;;;23.40;;
73682;SDS011;72538;48.146;11.740;2024-03-23T11:43:13;9.57;;;8.87;;
73682;SDS011;72538;48.146;11.740;2024-03-23T11:45:42;6.43;;;5.77;;
73682;SDS011;72538;48.146;11.740;2024-03-23T11:48:09;2.20;;;2.00;;
73682;SDS011;72538;48.146;11.740;2024-03-23T11:50:39;3.03;;;2.83;;
73682;SDS011;72538;48.146;11.740;2024-03-23T11:53:23;6.87;;;6.33;;
73682;SDS011;72538;48.146;11.740;2024-03-23T11:55:51;3.37;;;2.30;;
73682;SDS011;72538;48.146;11.740;2024-03-23T11:58:18;2.97;;;2.70;;
73682;SDS011;72538;48.146;11.740;2024-03-23T12:01:00;3.57;;;3.27;;
73682;SDS011;72538;48.146;11.740;2024-03-23T12:03:29;2.57;;;2.30;;
73682;SDS011;72538;48.146;11.740;2024-03-23T12:05:57;2.00;;;1.90;;
73682;SDS011;72538;48.146;11.740;2024-03-23T12:08:30;2.40;;;1.87;;
73682;SDS011;72538;48.146;11.740;2024-03-23T12:11:13;2.10;;;1.33;;
73682;SDS011;72538;48.146;11.740;2024-03-23T12:13:41;2.30;;;1.70;;
73682;SDS011;72538;48.146;11.740;2024-03-23T12:18:38;2.50;;;1.50;;
73682;SDS011;72538;48.146;11.740;2024-03-23T12:21:06;3.40;;;1.40;;
73682;SDS011;72538;48.146;11.740;2024-03-23T12:23:53;3.10;;;1.30;;
73682;SDS011;72538;48.146;11.740;2024-03-23T12:26:20;2.10;;;1.27;;
73682;SDS011;72538;48.146;11.740;2024-03-23T12:28:46;4.27;;;1.70;;
73682;SDS011;72538;48.146;11.740;2024-03-23T12:31:12;1.83;;;1.50;;
73682;SDS011;72538;48.146;11.740;2024-03-23T12:33:38;1.90;;;1.57;;
73682;SDS011;72538;48.146;11.740;2024-03-23T12:36:04;2.87;;;1.77;;
73682;SDS011;72538;48.146;11.740;2024-03-23T12:38:31;7.77;;;6.33;;
73682;SDS011;72538;48.146;11.740;2024-03-23T12:40:57;108.67;;;70.37;;
73682;SDS011;72538;48.146;11.740;2024-03-23T12:43:23;121.03;;;62.37;;
73682;SDS011;72538;48.146;11.740;2024-03-23T12:45:49;120.60;;;59.30;;
73682;SDS011;72538;48.146;11.740;2024-03-23T12:48:16;174.17;;;88.60;;
73682;SDS011;72538;48.146;11.740;2024-03-23T12:50:42;50.77;;;28.50;;
73682;SDS011;72538;48.146;11.740;2024-03-23T12:53:08;122.17;;;65.20;;
73682;SDS011;72538;48.146;11.740;2024-03-23T12:55:35;25.77;;;13.87;;
73682;SDS011;72538;48.146;11.740;2024-03-23T12:58:01;105.20;;;66.27;;
73682;SDS011;72538;48.146;11.740;2024-03-23T13:00:27;26.90;;;20.73;;
73682;SDS011;72538;48.146;11.740;2024-03-23T13:02:53;8.30;;;6.67;;
73682;SDS011;72538;48.146;11.740;2024-03-23T13:05:19;24.90;;;19.33;;
73682;SDS011;72538;48.146;11.740;2024-03-23T13:07:46;22.03;;;17.33;;
73682;SDS011;72538;48.146;11.740;2024-03-23T13:10:12;5.03;;;4.53;;
73682;SDS011;72538;48.146;11.740;2024-03-23T13:12:39;4.33;;;3.23;;
73682;SDS011;72538;48.146;11.740;2024-03-23T13:15:05;5.93;;;5.00;;
73682;SDS011;72538;48.146;11.740;2024-03-23T13:17:31;4.07;;;3.40;;
73682;SDS011;72538;48.146;11.740;2024-03-23T13:19:57;5.53;;;4.90;;
73682;SDS011;72538;48.146;11.740;2024-03-23T13:22:24;5.47;;;4.80;;
73682;SDS011;72538;48.146;11.740;2024-03-23T13:24:50;5.30;;;4.90;;
73682;SDS011;72538;48.146;11.740;2024-03-23T13:27:16;6.93;;;3.63;;
73682;SDS011;72538;48.146;11.740;2024-03-23T13:29:42;6.77;;;6.10;;
73682;SDS011;72538;48.146;11.740;2024-03-23T13:32:08;9.67;;;8.77;;
73682;SDS011;72538;48.146;11.740;2024-03-23T13:34:35;4.93;;;3.90;;
73682;SDS011;72538;48.146;11.740;2024-03-23T13:37:01;3.40;;;2.30;;
73682;SDS011;72538;48.146;11.740;2024-03-23T13:39:27;2.87;;;2.03;;
73682;SDS011;72538;48.146;11.740;2024-03-23T13:41:53;2.33;;;1.87;;
73682;SDS011;72538;48.146;11.740;2024-03-23T13:44:23;6.17;;;2.27;;
73682;SDS011;72538;48.146;11.740;2024-03-23T13:46:49;4.13;;;2.33;;
73682;SDS011;72538;48.146;11.740;2024-03-23T13:51:53;124.13;;;60.63;;
73682;SDS011;72538;48.146;11.740;2024-03-23T13:54:20;83.00;;;41.53;;
73682;SDS011;72538;48.146;11.740;2024-03-23T13:56:54;300.83;;;150.23;;
73682;SDS011;72538;48.146;11.740;2024-03-23T13:59:18;402.70;;;180.83;;
73682;SDS011;72538;48.146;11.740;2024-03-23T14:01:44;253.07;;;103.90;;
73682;SDS011;72538;48.146;11.740;2024-03-23T14:04:13;70.77;;;37.50;;
73682;SDS011;72538;48.146;11.740;2024-03-23T14:06:39;42.07;;;29.33;;
73682;SDS011;72538;48.146;11.740;2024-03-23T14:09:07;29.60;;;19.03;;
73682;SDS011;72538;48.146;11.740;2024-03-23T14:11:35;27.83;;;19.60;;
73682;SDS011;72538;48.146;11.740;2024-03-23T14:14:02;9.83;;;8.13;;
73682;SDS011;72538;48.146;11.740;2024-03-23T14:16:30;6.40;;;5.23;;
73682;SDS011;72538;48.146;11.740;2024-03-23T14:18:56;4.17;;;3.57;;
73682;SDS011;72538;48.146;11.740;2024-03-23T14:21:23;6.57;;;4.90;;
73682;SDS011;72538;48.146;11.740;2024-03-23T14:23:49;6.00;;;4.17;;
73682;SDS011;72538;48.146;11.740;2024-03-23T14:26:16;5.53;;;4.20;;
73682;SDS011;72538;48.146;11.740;2024-03-23T14:28:44;4.97;;;4.50;;
73682;SDS011;72538;48.146;11.740;2024-03-23T14:31:10;5.07;;;4.03;;
73682;SDS011;72538;48.146;11.740;2024-03-23T14:33:41;6.17;;;5.03;;
73682;SDS011;72538;48.146;11.740;2024-03-23T14:36:07;5.40;;;4.27;;
73682;SDS011;72538;48.146;11.740;2024-03-23T14:38:33;7.13;;;6.43;;
73682;SDS011;72538;48.146;11.740;2024-03-23T14:40:59;7.73;;;6.33;;
73682;SDS011;72538;48.146;11.740;2024-03-23T14:43:26;7.63;;;6.03;;
73682;SDS011;72538;48.146;11.740;2024-03-23T14:46:11;6.47;;;4.20;;
73682;SDS011;72538;48.146;11.740;2024-03-23T14:48:38;6.20;;;3.97;;
73682;SDS011;72538;48.146;11.740;2024-03-23T14:51:05;5.47;;;4.17;;
73682;SDS011;72538;48.146;11.740;2024-03-23T14:53:32;4.70;;;3.60;;
73682;SDS011;72538;48.146;11.740;2024-03-23T14:55:59;4.60;;;3.90;;
73682;SDS011;72538;48.146;11.740;2024-03-23T14:58:26;8.37;;;4.03;;
73682;SDS011;72538;48.146;11.740;2024-03-23T15:00:52;7.80;;;4.00;;
73682;SDS011;72538;48.146;11.740;2024-03-23T15:03:19;6.07;;;3.33;;
73682;SDS011;72538;48.146;11.740;2024-03-23T15:05:54;7.23;;;3.57;;
73682;SDS011;72538;48.146;11.740;2024-03-23T15:08:21;4.67;;;2.63;;
73682;SDS011;72538;48.146;11.740;2024-03-23T15:10:49;4.57;;;2.50;;
73682;SDS011;72538;48.146;11.740;2024-03-23T15:13:15;6.60;;;1.97;;
73682;SDS011;72538;48.146;11.740;2024-03-23T15:15:41;3.40;;;1.90;;
73682;SDS011;72538;48.146;11.740;2024-03-23T15:18:13;2.97;;;1.90;;
73682;SDS011;72538;48.146;11.740;2024-03-23T15:20:51;3.93;;;1.70;;
73682;SDS011;72538;48.146;11.740;2024-03-23T15:23:08;4.60;;;1.90;;
73682;SDS011;72538;48.146;11.740;2024-03-23T15:25:34;3.13;;;2.00;;
73682;SDS011;72538;48.146;11.740;2024-03-23T15:28:01;3.80;;;1.97;;
73682;SDS011;72538;48.146;11.740;2024-03-23T15:30:28;6.23;;;1.67;;
73682;SDS011;72538;48.146;11.740;2024-03-23T15:32:54;4.57;;;1.87;;
73682;SDS011;72538;48.146;11.740;2024-03-23T15:35:20;4.03;;;2.07;;
73682;SDS011;72538;48.146;11.740;2024-03-23T15:37:48;3.27;;;2.17;;
73682;SDS011;72538;48.146;11.740;2024-03-23T15:40:15;4.50;;;2.20;;